»·PEaware :: SKY213 KHLN-KLVM

SKY213 :: KHLN-KLVM

FLIGHT INFORMATION

Flight Status: Arrived
Operator:
Sky High Charters
More flights by this operator :: More flights under this callsign
Pilot: Adam G. (6775)
Aircraft: BEECH AIRCRAFT BARON
(BE58)
More flights by this aircraft type
Origin: KHLN Helena Regl
United States
Destination: KLVM Mission
United States
More flights between these airports :: More routes between these airports
Route: +HLN4 HLN V2 LVM
File this flight plan on PilotEdge
Remarks:
Altitude:
(Current/Filed)
11,000ft
Speed:
(Current/Filed)
160kts
Departed: 09-Nov-19 05:57 PM
Arrived: 09-Nov-19 06:44 PM
Distance/Time
Traveled:
84nm/0:46
Distance/Time
To Go:
Arrived

Flight Plot

Page will automatically refresh every two minutes.

Flight plan parsing failed; only flown route is shown


Map Options




Map Legend


Flown Route
Filed Route
Departure Airport
Arrival Airport
Navaid (VOR, NDB)
Fix

Horizontal Profiles

Position Reports

Time Latitude Longitude Heading Altitude Ground
Speed
09-Nov-19 17:45 46.602690 -111.981977 356 3861ft 0kts
09-Nov-19 17:45 46.602690 -111.981977 356 3861ft 0kts
09-Nov-19 17:46 46.602690 -111.981977 356 3861ft 0kts
09-Nov-19 17:48 46.602690 -111.981977 356 3861ft 0kts
09-Nov-19 17:48 46.602690 -111.981977 356 3861ft 0kts
09-Nov-19 17:49 46.602690 -111.981977 356 3861ft 0kts
09-Nov-19 17:50 46.603222 -111.981996 358 3859ft 0kts
09-Nov-19 17:51 46.603283 -111.981999 358 3859ft 3kts
09-Nov-19 17:52 46.603339 -111.975337 97 3856ft 20kts
09-Nov-19 17:53 46.602613 -111.968445 103 3849ft 23kts
09-Nov-19 17:54 46.602103 -111.963339 41 3844ft 0kts
09-Nov-19 17:55 46.602312 -111.963144 19 3843ft 14kts
09-Nov-19 17:56 46.607493 -111.992103 281 4111ft 137kts
09-Nov-19 17:57 46.635329 -112.003181 25 5439ft 139kts
09-Nov-19 17:58 46.671644 -111.983806 18 6720ft 140kts
09-Nov-19 17:59 46.709836 -111.977244 358 7883ft 139kts
09-Nov-19 18:00 46.736056 -112.003130 247 8941ft 142kts
09-Nov-19 18:01 46.694454 -112.010234 167 9004ft 176kts
09-Nov-19 18:02 46.648387 -111.981400 154 8954ft 175kts
09-Nov-19 18:03 46.606617 -111.952968 155 9532ft 160kts
09-Nov-19 18:04 46.568492 -111.921465 146 10124ft 157kts
09-Nov-19 18:05 46.559495 -111.860898 101 10779ft 157kts
09-Nov-19 18:06 46.544192 -111.798088 115 10938ft 177kts
09-Nov-19 18:07 46.521239 -111.733097 117 10904ft 183kts
09-Nov-19 18:08 46.496876 -111.668338 118 10900ft 183kts
09-Nov-19 18:09 46.472092 -111.603796 118 10902ft 182kts
09-Nov-19 18:10 46.449009 -111.544138 119 10902ft 182kts
09-Nov-19 18:11 46.424065 -111.479923 119 10902ft 183kts
09-Nov-19 18:12 46.399015 -111.415620 119 10893ft 183kts
09-Nov-19 18:13 46.373838 -111.351158 119 10892ft 183kts
09-Nov-19 18:14 46.348504 -111.287403 120 10893ft 183kts
09-Nov-19 18:15 46.323189 -111.223277 120 10892ft 183kts
09-Nov-19 18:16 46.298637 -111.158594 115 10897ft 182kts
09-Nov-19 18:17 46.277388 -111.092021 114 10893ft 182kts
09-Nov-19 18:18 46.251887 -111.029715 140 10916ft 178kts
09-Nov-19 18:19 46.212151 -110.985470 143 10901ft 180kts
09-Nov-19 18:20 46.171683 -110.941993 143 10895ft 181kts
09-Nov-19 18:21 46.134579 -110.893528 126 10924ft 179kts
09-Nov-19 18:22 46.104823 -110.834747 125 10896ft 181kts
09-Nov-19 18:23 46.076715 -110.774367 122 10891ft 181kts
09-Nov-19 18:24 46.049486 -110.713064 122 10892ft 181kts
09-Nov-19 18:25 46.022246 -110.651952 122 10892ft 181kts
09-Nov-19 18:26 45.994956 -110.590864 122 10893ft 181kts
09-Nov-19 18:27 45.967529 -110.529603 122 10893ft 181kts
09-Nov-19 18:28 45.940200 -110.468692 122 10893ft 181kts
09-Nov-19 18:29 45.912786 -110.407726 122 10893ft 181kts
09-Nov-19 18:30 45.885240 -110.346602 123 10892ft 181kts
09-Nov-19 18:31 45.857695 -110.285609 123 10893ft 181kts
09-Nov-19 18:32 45.830218 -110.224896 123 10893ft 181kts
09-Nov-19 18:33 45.802655 -110.164117 122 10892ft 181kts
09-Nov-19 18:34 45.788673 -110.094761 104 10897ft 181kts
09-Nov-19 18:35 45.815381 -110.066155 306 10851ft 180kts
09-Nov-19 18:36 45.806425 -110.132800 253 10903ft 181kts
09-Nov-19 18:37 45.786994 -110.199601 243 9158ft 192kts
09-Nov-19 18:38 45.763458 -110.266839 243 6214ft 183kts
09-Nov-19 18:39 45.744579 -110.320697 243 5616ft 133kts
09-Nov-19 18:40 45.728434 -110.368294 255 5122ft 146kts
09-Nov-19 18:41 45.710546 -110.416768 245 4879ft 121kts
09-Nov-19 18:42 45.697129 -110.447440 234 4653ft 49kts
09-Nov-19 18:43 45.696555 -110.453017 126 4650ft 0kts
09-Nov-19 18:44 45.696538 -110.452983 125 4650ft 0kts
09-Nov-19 18:45 45.696538 -110.452983 125 4650ft 0kts
09-Nov-19 18:46 45.696538 -110.452983 125 4650ft 0kts
09-Nov-19 18:47 45.696538 -110.452983 125 4650ft 0kts
09-Nov-19 18:48 45.696538 -110.452983 125 4650ft 0kts
09-Nov-19 18:49 45.696538 -110.452983 125 4650ft 0kts
09-Nov-19 18:50 45.696538 -110.452983 125 4650ft 0kts
09-Nov-19 18:51 45.696538 -110.452983 125 4650ft 0kts
09-Nov-19 18:52 45.696538 -110.452983 125 4650ft 0kts

Navigation Log

Ident Type
Flight plan parsing failed, navigation log unavailable